Time;durP1;ratioP1;P1;durP2;ratioP2;P2;SDS_P1;SDS_P2;PMS_P1;PMS_P2;Temp;Humidity;BMP_temperature;BMP_pressure;BME280_temperature;BME280_humidity;BME280_pressure;Samples;Min_cycle;Max_cycle;Signal;HPM_P1;HPM_P2
2023/03/19 00:01:04;;;;;;;14.45;5.90;;;;;;;13.60;99.93;95971.00;5045284;28;20060;-48
2023/03/19 00:03:32;;;;;;;12.13;5.63;;;;;;;13.57;100.00;95976.66;5041868;28;20506;-47
2023/03/19 00:06:01;;;;;;;11.27;5.55;;;;;;;13.58;99.22;95975.63;5046463;28;20080;-49
2023/03/19 00:08:29;;;;;;;13.25;5.68;;;;;;;13.54;100.00;95972.50;5043684;28;20060;-52
2023/03/19 00:10:58;;;;;;;15.85;5.85;;;;;;;13.49;98.70;95965.09;5043197;28;20088;-52
2023/03/19 00:13:26;;;;;;;10.77;5.40;;;;;;;13.45;96.03;95968.25;5039364;28;20140;-56
2023/03/19 00:15:56;;;;;;;17.63;6.38;;;;;;;13.38;95.29;95968.13;5039844;28;20084;-51
2023/03/19 00:18:24;;;;;;;10.07;4.97;;;;;;;13.29;94.64;95962.06;5045270;28;20073;-47
2023/03/19 00:20:53;;;;;;;14.57;6.03;;;;;;;13.24;94.64;95964.38;5039653;28;20065;-50
2023/03/19 00:23:21;;;;;;;18.45;6.40;;;;;;;13.22;95.13;95968.19;5040420;28;20092;-47
2023/03/19 00:25:49;;;;;;;12.13;5.45;;;;;;;13.20;96.83;95970.19;5041561;28;20091;-47
2023/03/19 00:28:18;;;;;;;11.23;5.70;;;;;;;13.13;96.80;95969.22;5042028;28;20080;-51
2023/03/19 00:30:46;;;;;;;14.32;6.60;;;;;;;13.05;98.52;95965.63;5039806;28;20187;-56
2023/03/19 00:33:16;;;;;;;17.20;6.93;;;;;;;13.00;99.80;95967.94;5043917;28;20841;-46
2023/03/19 00:35:45;;;;;;;16.37;6.53;;;;;;;12.98;100.00;95974.44;5043248;28;20437;-51
2023/03/19 00:38:13;;;;;;;15.73;6.28;;;;;;;12.95;100.00;95977.41;5042682;28;20076;-52
2023/03/19 00:40:41;;;;;;;17.98;6.93;;;;;;;12.90;100.00;95987.66;5042273;28;20081;-50
2023/03/19 00:43:10;;;;;;;15.88;6.30;;;;;;;12.88;100.00;95985.22;5043477;28;20085;-55
2023/03/19 00:45:38;;;;;;;10.95;5.75;;;;;;;12.90;100.00;95985.03;5038586;28;20080;-46
2023/03/19 00:48:07;;;;;;;17.77;6.65;;;;;;;12.91;100.00;95987.50;5042702;28;20087;-55
2023/03/19 00:50:36;;;;;;;12.68;6.20;;;;;;;12.92;100.00;95983.03;5042693;28;20182;-47
2023/03/19 00:53:05;;;;;;;15.60;5.57;;;;;;;12.83;100.00;95983.09;5039525;28;20072;-56
2023/03/19 00:55:33;;;;;;;16.20;6.18;;;;;;;12.82;100.00;95986.69;5041761;28;20073;-51
2023/03/19 00:58:02;;;;;;;13.77;5.88;;;;;;;12.79;100.00;95984.38;5041203;28;20095;-52
2023/03/19 01:00:31;;;;;;;12.20;6.05;;;;;;;12.78;100.00;95987.22;5045818;28;20493;-52
2023/03/19 01:03:00;;;;;;;12.27;5.70;;;;;;;12.72;100.00;95993.19;5043457;28;20056;-46
2023/03/19 01:05:28;;;;;;;15.40;5.63;;;;;;;12.63;100.00;95994.19;5040806;28;20099;-53
2023/03/19 01:08:01;;;;;;;15.43;6.80;;;;;;;12.57;100.00;95999.16;5040247;28;20061;-53
2023/03/19 01:10:29;;;;;;;15.80;5.72;;;;;;;12.50;100.00;96000.03;5034765;28;20420;-51
2023/03/19 01:12:58;;;;;;;14.32;6.03;;;;;;;12.40;100.00;96000.19;5040418;28;20523;-46
2023/03/19 01:15:26;;;;;;;14.55;6.18;;;;;;;12.28;100.00;95994.41;5041807;28;20095;-48
2023/03/19 01:17:54;;;;;;;16.20;6.47;;;;;;;12.18;100.00;95993.78;5042322;28;20119;-48
2023/03/19 01:20:23;;;;;;;12.32;6.43;;;;;;;12.15;100.00;95998.53;5042259;28;20080;-49
2023/03/19 01:22:51;;;;;;;16.55;6.68;;;;;;;12.09;100.00;96006.16;5039231;28;20080;-51
2023/03/19 01:25:21;;;;;;;13.75;6.07;;;;;;;12.05;100.00;95996.91;5068979;28;20076;-52
2023/03/19 01:27:51;;;;;;;16.57;6.90;;;;;;;12.01;100.00;95990.31;5042593;28;20067;-53
2023/03/19 01:30:19;;;;;;;11.40;5.68;;;;;;;11.86;100.00;95992.75;5039525;28;20522;-51
2023/03/19 01:32:47;;;;;;;15.13;6.57;;;;;;;11.78;100.00;95998.00;5041488;28;20542;-54
2023/03/19 01:35:16;;;;;;;15.45;6.45;;;;;;;11.68;100.00;95994.69;5041219;28;20111;-56
2023/03/19 01:37:44;;;;;;;11.85;6.07;;;;;;;11.61;100.00;95991.06;5039878;28;20085;-53
2023/03/19 01:40:14;;;;;;;11.27;6.35;;;;;;;11.62;100.00;95996.16;5040652;28;20112;-51
2023/03/19 01:42:54;;;;;;;17.05;6.95;;;;;;;11.64;100.00;96001.28;5040662;28;20495;-48
2023/03/19 01:45:34;;;;;;;19.08;6.90;;;;;;;11.67;100.00;95998.34;5038972;28;20056;-49
2023/03/19 01:48:02;;;;;;;10.67;6.30;;;;;;;11.65;100.00;95993.19;5040280;28;20083;-52
2023/03/19 01:50:37;;;;;;;16.08;6.88;;;;;;;11.65;100.00;95998.47;5038177;28;20499;-46
2023/03/19 01:53:05;;;;;;;14.10;6.55;;;;;;;11.63;100.00;96000.47;5042008;28;20068;-47
2023/03/19 01:55:34;;;;;;;16.42;5.97;;;;;;;11.63;100.00;96004.91;5038017;28;20081;-45
2023/03/19 01:58:05;;;;;;;14.70;6.25;;;;;;;11.60;100.00;96000.78;5038535;28;20455;-49
2023/03/19 02:00:34;;;;;;;18.77;6.53;;;;;;;11.55;100.00;95999.63;5048841;28;20572;-49
2023/03/19 02:03:03;;;;;;;14.05;6.25;;;;;;;11.47;100.00;95992.50;5043899;28;20083;-48
2023/03/19 02:05:32;;;;;;;13.82;6.20;;;;;;;11.43;100.00;96001.75;5044460;28;20068;-55
2023/03/19 02:08:03;;;;;;;11.77;6.30;;;;;;;11.34;100.00;96000.88;5045012;28;20087;-51
2023/03/19 02:10:32;;;;;;;12.73;6.22;;;;;;;11.25;100.00;95991.31;5045257;28;20431;-50
2023/03/19 02:13:00;;;;;;;17.80;6.43;;;;;;;11.20;100.00;96000.69;5047563;28;20068;-49
2023/03/19 02:15:30;;;;;;;15.75;6.88;;;;;;;11.22;100.00;96001.31;5045491;28;20561;-52
2023/03/19 02:17:59;;;;;;;14.85;6.50;;;;;;;11.24;100.00;96004.66;5045282;28;20107;-56
2023/03/19 02:20:32;;;;;;;18.45;7.13;;;;;;;11.30;100.00;96002.19;5041804;28;20097;-58
2023/03/19 02:23:07;;;;;;;16.27;7.00;;;;;;;11.34;100.00;96008.78;5042518;28;20611;-48
2023/03/19 02:25:40;;;;;;;12.65;6.57;;;;;;;11.36;100.00;96009.47;5042890;28;20084;-50
2023/03/19 02:28:11;;;;;;;11.18;6.53;;;;;;;11.41;100.00;96009.00;5043907;28;20656;-54
2023/03/19 02:30:39;;;;;;;13.05;7.38;;;;;;;11.37;100.00;96010.31;5042763;28;20124;-53
2023/03/19 02:33:10;;;;;;;13.85;6.00;;;;;;;11.32;100.00;96010.78;5044525;28;20080;-56
2023/03/19 02:35:38;;;;;;;13.63;5.85;;;;;;;11.31;100.00;96008.28;5060137;28;20076;-53
2023/03/19 02:38:06;;;;;;;11.27;6.03;;;;;;;11.32;100.00;96015.22;5046047;28;20076;-53
2023/03/19 02:40:38;;;;;;;13.13;6.35;;;;;;;11.26;100.00;96000.03;5047256;28;20084;-50
2023/03/19 02:43:06;;;;;;;13.48;6.85;;;;;;;11.29;100.00;95999.72;5043088;28;20100;-53
2023/03/19 02:45:36;;;;;;;17.38;7.97;;;;;;;11.35;100.00;95991.97;5044924;28;20083;-48
2023/03/19 02:48:05;;;;;;;17.25;8.15;;;;;;;11.41;100.00;95993.16;5046064;28;20092;-54
2023/03/19 02:50:33;;;;;;;10.15;5.65;;;;;;;11.37;100.00;95991.81;5044409;28;20073;-52
2023/03/19 02:53:02;;;;;;;9.93;5.45;;;;;;;11.31;100.00;95990.63;5044901;28;20080;-50
2023/03/19 02:55:31;;;;;;;11.00;6.40;;;;;;;11.29;100.00;95997.91;5045003;28;20084;-48
2023/03/19 02:57:59;;;;;;;13.55;6.63;;;;;;;11.29;100.00;95997.09;5045864;28;20088;-47
2023/03/19 03:00:27;;;;;;;15.77;6.95;;;;;;;11.30;100.00;95998.72;5043695;28;20080;-48
2023/03/19 03:02:58;;;;;;;14.70;7.03;;;;;;;11.27;100.00;96007.78;5041110;28;20081;-54
2023/03/19 03:05:26;;;;;;;12.85;6.97;;;;;;;11.27;100.00;96007.78;5045063;28;20064;-48
2023/03/19 03:07:54;;;;;;;14.43;6.93;;;;;;;11.21;100.00;96011.06;5044610;28;20072;-50
2023/03/19 03:10:22;;;;;;;12.15;6.75;;;;;;;11.14;100.00;96018.78;5043984;28;20068;-47
2023/03/19 03:12:51;;;;;;;13.63;6.90;;;;;;;11.11;100.00;96018.28;5044955;28;20077;-48
2023/03/19 03:15:20;;;;;;;15.60;6.85;;;;;;;11.10;100.00;96021.91;5041663;28;20044;-50
2023/03/19 03:17:48;;;;;;;13.07;6.80;;;;;;;11.06;100.00;96018.75;5044545;28;20430;-48
2023/03/19 03:20:19;;;;;;;12.55;7.00;;;;;;;11.01;100.00;96020.22;5044117;28;20080;-50
2023/03/19 03:22:48;;;;;;;16.50;7.07;;;;;;;10.96;100.00;96015.41;5041229;28;20072;-53
2023/03/19 03:25:16;;;;;;;15.23;8.15;;;;;;;11.01;100.00;96017.56;5044020;28;20076;-50
2023/03/19 03:27:45;;;;;;;13.73;7.25;;;;;;;11.04;100.00;96026.00;5045146;28;20522;-48
2023/03/19 03:30:14;;;;;;;12.25;6.65;;;;;;;11.02;100.00;96029.81;5042979;28;20083;-46
2023/03/19 03:32:43;;;;;;;15.00;7.72;;;;;;;11.01;100.00;96025.47;5039745;28;20095;-52
2023/03/19 03:35:12;;;;;;;17.73;8.32;;;;;;;10.96;100.00;96030.44;5041673;28;20087;-47
2023/03/19 03:37:41;;;;;;;14.75;8.30;;;;;;;10.99;100.00;96036.22;5039732;28;20064;-51
2023/03/19 03:40:11;;;;;;;16.05;7.25;;;;;;;10.96;100.00;96048.91;5043483;28;20085;-47
2023/03/19 03:42:39;;;;;;;15.02;8.05;;;;;;;10.85;100.00;96044.72;5044157;28;20072;-51
2023/03/19 03:45:09;;;;;;;17.50;8.52;;;;;;;10.91;100.00;96044.09;5037767;28;20072;-54
2023/03/19 03:47:38;;;;;;;17.15;7.78;;;;;;;10.96;100.00;96038.34;5041750;28;20077;-54
2023/03/19 03:50:09;;;;;;;15.77;7.88;;;;;;;10.98;100.00;96041.63;5042712;28;20085;-48
2023/03/19 03:52:38;;;;;;;14.60;7.85;;;;;;;10.94;100.00;96043.75;5043507;28;20081;-55
2023/03/19 03:55:09;;;;;;;13.75;8.05;;;;;;;10.94;100.00;96030.56;5041231;28;20089;-49
2023/03/19 03:57:37;;;;;;;20.10;8.43;;;;;;;10.89;100.00;96031.03;5044244;28;20081;-51
2023/03/19 04:00:07;;;;;;;14.05;7.15;;;;;;;10.74;100.00;96035.25;5040477;28;20136;-51
2023/03/19 04:02:35;;;;;;;15.75;7.50;;;;;;;10.59;100.00;96042.91;5042594;28;20080;-48
2023/03/19 04:05:05;;;;;;;15.77;7.55;;;;;;;10.51;100.00;96037.59;5041926;28;20091;-51
2023/03/19 04:07:33;;;;;;;13.75;7.80;;;;;;;10.63;100.00;96043.41;5043425;28;20824;-47
2023/03/19 04:10:01;;;;;;;18.42;8.18;;;;;;;10.62;100.00;96047.84;5045098;28;20064;-52
2023/03/19 04:12:31;;;;;;;17.13;7.82;;;;;;;10.64;100.00;96048.53;5043046;28;20077;-52
2023/03/19 04:14:59;;;;;;;16.00;8.00;;;;;;;10.69;100.00;96051.53;5041143;28;20461;-51
2023/03/19 04:17:28;;;;;;;17.48;8.57;;;;;;;10.68;100.00;96047.25;5040808;28;20904;-48
2023/03/19 04:19:56;;;;;;;15.85;7.85;;;;;;;10.63;100.00;96057.44;5042617;28;20080;-52
2023/03/19 04:22:24;;;;;;;15.98;9.35;;;;;;;10.76;100.00;96062.28;5040816;28;20132;-48
2023/03/19 04:24:53;;;;;;;17.92;8.23;;;;;;;10.80;100.00;96062.81;5042460;28;21155;-55
2023/03/19 04:27:21;;;;;;;18.98;7.95;;;;;;;10.72;100.00;96068.03;5043868;28;20081;-49
2023/03/19 04:29:51;;;;;;;17.25;7.72;;;;;;;10.84;100.00;96059.72;5040942;28;20096;-55
2023/03/19 04:32:19;;;;;;;15.18;6.88;;;;;;;10.91;100.00;96065.19;5041686;28;20081;-51
2023/03/19 04:34:47;;;;;;;15.88;7.70;;;;;;;10.89;100.00;96056.59;5043885;28;20073;-50
2023/03/19 04:37:15;;;;;;;17.67;8.07;;;;;;;10.92;100.00;96066.84;5043562;28;20075;-48
2023/03/19 04:39:44;;;;;;;15.00;7.80;;;;;;;10.85;100.00;96061.38;5040969;28;20537;-52
2023/03/19 04:42:13;;;;;;;19.00;7.95;;;;;;;10.90;100.00;96061.72;5045818;28;20073;-46
2023/03/19 04:44:41;;;;;;;15.43;8.40;;;;;;;11.02;100.00;96062.28;5042069;28;20106;-55
2023/03/19 04:47:11;;;;;;;14.13;7.90;;;;;;;11.02;100.00;96062.28;5040586;28;20088;-47
2023/03/19 04:49:40;;;;;;;14.43;7.93;;;;;;;11.09;100.00;96060.66;5042960;28;20486;-52
2023/03/19 04:52:09;;;;;;;15.20;8.15;;;;;;;11.24;100.00;96062.72;5040498;28;20076;-57
2023/03/19 04:54:37;;;;;;;17.85;8.38;;;;;;;11.25;100.00;96074.91;5037312;28;20088;-53
2023/03/19 04:57:06;;;;;;;16.00;8.40;;;;;;;11.23;100.00;96071.63;5039779;28;20080;-52
2023/03/19 04:59:34;;;;;;;17.50;8.13;;;;;;;11.42;100.00;96071.34;5042818;28;20091;-49
2023/03/19 05:02:02;;;;;;;13.60;7.45;;;;;;;11.52;100.00;96079.97;5048668;28;20107;-52
2023/03/19 05:04:32;;;;;;;13.88;8.18;;;;;;;11.49;100.00;96076.81;5044504;28;20542;-50
2023/03/19 05:07:00;;;;;;;14.68;8.15;;;;;;;11.41;100.00;96075.81;5041320;28;20494;-53
2023/03/19 05:09:29;;;;;;;14.55;7.47;;;;;;;11.33;100.00;96082.88;5041088;28;20084;-51
2023/03/19 05:11:58;;;;;;;17.25;7.53;;;;;;;11.41;100.00;96083.72;5042731;28;20092;-52
2023/03/19 05:14:26;;;;;;;16.23;7.68;;;;;;;11.40;100.00;96086.53;5042707;28;20071;-55
2023/03/19 05:16:55;;;;;;;16.75;8.85;;;;;;;11.65;100.00;96080.34;5036033;28;20081;-52
2023/03/19 05:19:24;;;;;;;17.70;8.18;;;;;;;11.70;100.00;96079.88;5042990;28;20454;-49
2023/03/19 05:21:53;;;;;;;16.00;8.02;;;;;;;11.71;100.00;96086.81;5035872;28;20077;-49
2023/03/19 05:24:22;;;;;;;15.50;7.18;;;;;;;11.75;100.00;96087.31;5041005;28;20103;-51
2023/03/19 05:26:50;;;;;;;16.98;8.02;;;;;;;11.77;100.00;96088.81;5040236;28;20080;-52
2023/03/19 05:29:18;;;;;;;14.80;8.07;;;;;;;11.90;100.00;96111.31;5043059;28;20077;-53
2023/03/19 05:31:46;;;;;;;14.38;8.27;;;;;;;11.94;100.00;96105.56;5043198;28;20087;-52
2023/03/19 05:34:15;;;;;;;13.20;7.88;;;;;;;12.03;100.00;96107.22;5040199;28;20088;-48
2023/03/19 05:36:43;;;;;;;13.82;8.15;;;;;;;12.12;100.00;96110.72;5041557;28;20080;-50
2023/03/19 05:39:13;;;;;;;16.33;8.68;;;;;;;12.21;100.00;96103.63;5042795;28;20084;-49
2023/03/19 05:41:41;;;;;;;17.13;9.07;;;;;;;12.23;100.00;96104.28;5046654;28;20072;-50
2023/03/19 05:44:09;;;;;;;16.20;8.75;;;;;;;12.21;100.00;96103.63;5041055;28;20080;-47
2023/03/19 05:46:38;;;;;;;15.23;8.18;;;;;;;12.13;100.00;96119.47;5041023;28;20088;-52
2023/03/19 05:49:06;;;;;;;12.10;7.57;;;;;;;12.20;100.00;96123.94;5040767;28;20068;-53
2023/03/19 05:51:34;;;;;;;12.80;8.13;;;;;;;12.35;100.00;96116.19;5040676;28;20103;-47
2023/03/19 05:54:03;;;;;;;16.50;8.82;;;;;;;12.36;100.00;96123.16;5037120;28;20068;-48
2023/03/19 05:56:33;;;;;;;12.02;8.43;;;;;;;12.48;100.00;96126.28;5043601;28;20068;-49
2023/03/19 05:59:01;;;;;;;15.27;8.68;;;;;;;12.64;100.00;96138.69;5040760;28;20069;-55
2023/03/19 06:01:30;;;;;;;18.50;9.10;;;;;;;12.42;100.00;96145.44;5039873;28;20077;-52
2023/03/19 06:03:58;;;;;;;14.10;8.70;;;;;;;12.61;100.00;96139.03;5040744;28;20187;-49
2023/03/19 06:06:27;;;;;;;15.30;7.88;;;;;;;12.64;100.00;96144.00;5041466;28;20136;-51
2023/03/19 06:08:55;;;;;;;14.02;8.35;;;;;;;12.80;100.00;96154.56;5040991;28;20080;-53
2023/03/19 06:11:23;;;;;;;18.63;8.73;;;;;;;12.94;100.00;96147.75;5040480;28;20061;-46
2023/03/19 06:13:53;;;;;;;16.95;9.27;;;;;;;12.98;100.00;96152.56;5040920;28;20060;-49
2023/03/19 06:16:21;;;;;;;14.73;8.90;;;;;;;12.99;100.00;96159.50;5037857;28;20068;-48
2023/03/19 06:18:50;;;;;;;20.40;9.13;;;;;;;13.05;100.00;96169.44;5042563;28;20033;-58
2023/03/19 06:21:18;;;;;;;15.45;8.73;;;;;;;12.90;100.00;96176.38;5046225;28;20085;-51
2023/03/19 06:23:47;;;;;;;16.60;9.13;;;;;;;13.06;100.00;96165.78;5045441;28;20088;-48
2023/03/19 06:26:15;;;;;;;15.13;8.77;;;;;;;13.04;100.00;96162.50;5043423;28;20081;-49
2023/03/19 06:28:43;;;;;;;14.85;8.35;;;;;;;13.26;100.00;96168.13;5039512;28;20084;-48
2023/03/19 06:31:13;;;;;;;14.85;9.32;;;;;;;13.40;100.00;96161.31;5040297;28;20107;-47
2023/03/19 06:33:41;;;;;;;15.02;9.30;;;;;;;13.67;100.00;96160.06;5041032;28;20485;-51
2023/03/19 06:36:10;;;;;;;20.15;10.10;;;;;;;13.81;100.00;96162.00;5037933;28;20143;-51
2023/03/19 06:38:38;;;;;;;18.83;10.73;;;;;;;14.00;100.00;96172.19;5044050;28;20537;-48
2023/03/19 06:41:06;;;;;;;14.98;8.95;;;;;;;14.05;100.00;96184.94;5043701;28;20673;-55
2023/03/19 06:43:36;;;;;;;16.65;8.77;;;;;;;13.98;100.00;96186.63;5044441;28;20095;-49
2023/03/19 06:46:05;;;;;;;13.27;8.43;;;;;;;14.18;100.00;96194.97;5040747;28;20548;-48
2023/03/19 06:48:38;;;;;;;15.40;8.68;;;;;;;14.28;100.00;96192.09;5042575;28;21636;-51
2023/03/19 06:51:06;;;;;;;16.17;8.40;;;;;;;14.28;100.00;96200.91;5044853;28;20088;-48
2023/03/19 06:53:34;;;;;;;15.68;8.15;;;;;;;14.42;100.00;96201.97;5048302;28;20503;-51
2023/03/19 06:56:03;;;;;;;12.73;7.85;;;;;;;14.42;100.00;96204.63;5046655;28;20080;-53
2023/03/19 06:58:32;;;;;;;14.35;9.50;;;;;;;14.52;100.00;96205.28;5047648;28;20130;-47
2023/03/19 07:01:00;;;;;;;15.75;9.23;;;;;;;14.61;100.00;96211.34;5046817;28;20099;-53
2023/03/19 07:03:28;;;;;;;17.27;9.48;;;;;;;14.76;100.00;96214.88;5047367;28;20849;-51
2023/03/19 07:05:58;;;;;;;17.05;8.68;;;;;;;14.81;100.00;96209.06;5046615;28;20080;-57
2023/03/19 07:08:28;;;;;;;14.37;8.10;;;;;;;14.68;100.00;96201.66;5046459;28;20111;-51
2023/03/19 07:10:57;;;;;;;12.55;8.30;;;;;;;14.43;100.00;96211.59;5047325;28;20511;-51
2023/03/19 07:13:25;;;;;;;14.63;8.57;;;;;;;14.60;100.00;96209.69;5043406;28;20091;-49
2023/03/19 07:15:53;;;;;;;14.50;7.93;;;;;;;14.68;100.00;96217.59;5046543;28;20081;-55
2023/03/19 07:18:21;;;;;;;12.77;7.78;;;;;;;14.47;100.00;96221.66;5046718;28;20072;-48
2023/03/19 07:20:51;;;;;;;14.77;8.35;;;;;;;14.84;100.00;96220.13;5047341;28;20346;-55
2023/03/19 07:23:21;;;;;;;12.63;8.77;;;;;;;15.05;100.00;96230.09;5045871;28;20494;-53
2023/03/19 07:25:49;;;;;;;17.80;8.53;;;;;;;14.92;100.00;96225.38;5043278;28;20091;-53
2023/03/19 07:28:17;;;;;;;16.27;7.82;;;;;;;15.16;100.00;96242.94;5046926;28;20538;-52
2023/03/19 07:30:46;;;;;;;16.88;8.18;;;;;;;15.14;100.00;96252.09;5045750;28;20087;-52
2023/03/19 07:33:14;;;;;;;14.07;8.18;;;;;;;15.10;100.00;96256.13;5045027;28;20452;-51
2023/03/19 07:35:42;;;;;;;14.20;7.38;;;;;;;15.03;100.00;96255.19;5044508;28;20068;-50
2023/03/19 07:38:11;;;;;;;19.58;8.32;;;;;;;15.10;100.00;96251.63;5047666;28;20467;-48
2023/03/19 07:40:41;;;;;;;13.00;8.13;;;;;;;15.37;100.00;96255.56;5044161;28;20578;-47
2023/03/19 07:43:26;;;;;;;13.55;8.85;;;;;;;15.54;100.00;96253.59;5044137;28;20182;-52
2023/03/19 07:45:54;;;;;;;14.10;8.90;;;;;;;15.96;100.00;96252.19;5044303;28;20080;-55
2023/03/19 07:48:22;;;;;;;15.05;8.90;;;;;;;16.09;100.00;96257.69;5044988;28;20080;-51
2023/03/19 07:50:51;;;;;;;15.95;9.10;;;;;;;16.49;100.00;96266.19;5043255;28;20072;-47
2023/03/19 07:53:20;;;;;;;16.30;9.10;;;;;;;16.60;100.00;96268.38;5046241;28;20091;-46
2023/03/19 07:55:49;;;;;;;17.75;8.82;;;;;;;16.44;100.00;96273.09;5045634;28;20318;-48
2023/03/19 07:58:18;;;;;;;12.90;7.90;;;;;;;16.30;100.00;96269.44;5046698;28;20072;-50
2023/03/19 08:00:46;;;;;;;13.95;7.88;;;;;;;16.30;100.00;96266.75;5043658;28;20076;-53
2023/03/19 08:03:15;;;;;;;15.50;8.10;;;;;;;15.96;100.00;96264.66;5047042;28;20080;-55
2023/03/19 08:05:43;;;;;;;16.17;7.45;;;;;;;16.03;100.00;96273.56;5045363;28;20108;-52
2023/03/19 08:08:12;;;;;;;12.50;7.10;;;;;;;15.99;100.00;96272.28;5045084;28;20115;-51
2023/03/19 08:10:40;;;;;;;13.75;7.00;;;;;;;16.26;100.00;96271.63;5046455;28;20084;-50
2023/03/19 08:13:10;;;;;;;12.80;7.60;;;;;;;16.71;100.00;96279.56;5047208;28;20095;-56
2023/03/19 08:15:39;;;;;;;15.05;6.80;;;;;;;16.63;100.00;96280.50;5046516;28;20077;-47
2023/03/19 08:18:07;;;;;;;14.18;6.70;;;;;;;16.85;100.00;96284.88;5044507;28;20091;-49
2023/03/19 08:20:36;;;;;;;13.07;5.53;;;;;;;16.89;100.00;96281.81;5043770;28;20636;-50
2023/03/19 08:23:04;;;;;;;10.90;5.82;;;;;;;17.14;100.00;96282.31;5050096;28;20048;-49
2023/03/19 08:25:33;;;;;;;11.73;6.03;;;;;;;17.52;100.00;96285.53;5043679;28;20067;-50
2023/03/19 08:28:01;;;;;;;10.88;5.50;;;;;;;17.31;100.00;96278.38;5045141;28;20068;-49
2023/03/19 08:30:31;;;;;;;8.27;4.47;;;;;;;16.92;100.00;96281.47;5045802;28;20068;-51
2023/03/19 08:33:00;;;;;;;7.50;4.68;;;;;;;17.11;100.00;96290.69;5045833;28;20091;-54
2023/03/19 08:35:29;;;;;;;10.93;4.35;;;;;;;17.26;100.00;96280.78;5042621;28;20072;-50
2023/03/19 08:37:57;;;;;;;6.50;4.55;;;;;;;17.11;100.00;96290.69;5046425;28;20080;-47
2023/03/19 08:40:26;;;;;;;5.45;3.60;;;;;;;17.16;100.00;96293.59;5039360;28;20518;-47
2023/03/19 08:42:55;;;;;;;6.28;3.05;;;;;;;17.22;100.00;96293.66;5043953;28;20676;-53
2023/03/19 08:45:24;;;;;;;5.05;2.60;;;;;;;17.20;100.00;96289.53;5044875;28;20530;-50
2023/03/19 08:47:54;;;;;;;5.35;1.92;;;;;;;17.23;100.00;96292.63;5044901;28;20077;-52
2023/03/19 08:50:22;;;;;;;6.03;3.23;;;;;;;17.60;100.00;96288.03;5046110;28;20072;-53
2023/03/19 08:52:51;;;;;;;5.97;2.63;;;;;;;17.11;100.00;96288.84;5042054;28;20068;-49
2023/03/19 08:55:19;;;;;;;3.60;2.15;;;;;;;16.77;100.00;96303.63;5045730;28;20072;-52
2023/03/19 08:57:48;;;;;;;3.60;2.22;;;;;;;16.57;100.00;96306.00;5044754;28;20072;-48
2023/03/19 09:00:18;;;;;;;4.25;1.85;;;;;;;16.66;100.00;96309.41;5043630;28;20065;-49
2023/03/19 09:02:46;;;;;;;5.88;3.22;;;;;;;17.09;100.00;96313.00;5048648;28;20060;-46
2023/03/19 09:05:19;;;;;;;7.90;3.33;;;;;;;17.35;100.00;96313.47;5039706;28;20092;-55
2023/03/19 09:07:47;;;;;;;6.00;3.05;;;;;;;17.67;100.00;96322.78;5044494;28;20060;-45
2023/03/19 09:10:15;;;;;;;6.68;3.22;;;;;;;17.92;100.00;96323.19;5043654;28;20451;-49
2023/03/19 09:12:44;;;;;;;5.72;3.80;;;;;;;18.40;100.00;96325.97;5041821;28;20091;-50
2023/03/19 09:15:15;;;;;;;6.95;3.45;;;;;;;18.58;97.59;96320.97;5042917;28;20080;-47
2023/03/19 09:17:44;;;;;;;4.80;3.05;;;;;;;18.65;95.05;96328.97;5041564;28;20088;-52
2023/03/19 09:20:12;;;;;;;8.18;3.47;;;;;;;18.64;91.60;96333.50;5042206;28;20115;-50
2023/03/19 09:22:42;;;;;;;4.40;3.20;;;;;;;18.46;100.00;96336.69;5040720;28;20081;-47
2023/03/19 09:25:11;;;;;;;5.77;3.47;;;;;;;18.50;95.34;96337.94;5043640;28;20099;-54
2023/03/19 09:27:39;;;;;;;5.82;3.20;;;;;;;18.76;88.96;96338.34;5045964;28;20111;-50
2023/03/19 09:30:09;;;;;;;7.85;3.13;;;;;;;18.49;95.24;96346.16;5044010;28;20076;-49
2023/03/19 09:32:37;;;;;;;5.10;3.03;;;;;;;18.55;97.39;96344.53;5040305;28;20079;-47
2023/03/19 09:35:07;;;;;;;2.42;1.80;;;;;;;17.94;100.00;96340.66;5044225;28;20068;-50
2023/03/19 09:37:35;;;;;;;3.95;2.00;;;;;;;17.86;100.00;96345.31;5038922;28;20080;-47
2023/03/19 09:40:07;;;;;;;4.00;2.60;;;;;;;17.72;100.00;96334.53;5043600;28;20501;-51
2023/03/19 09:42:52;;;;;;;4.20;2.40;;;;;;;17.93;100.00;96346.22;5042388;28;20107;-50
2023/03/19 09:45:21;;;;;;;3.20;2.13;;;;;;;17.92;100.00;96342.69;5041782;28;20069;-47
2023/03/19 09:47:51;;;;;;;3.92;2.72;;;;;;;18.44;100.00;96337.91;5040923;28;20080;-50
2023/03/19 09:50:23;;;;;;;4.97;2.60;;;;;;;18.69;100.00;96335.59;5046316;28;20072;-49
2023/03/19 09:52:56;;;;;;;4.78;2.67;;;;;;;19.05;100.00;96332.66;5044350;28;20073;-50
2023/03/19 09:55:36;;;;;;;5.35;1.88;;;;;;;19.32;98.10;96338.91;5042106;28;20068;-45
2023/03/19 09:58:11;;;;;;;5.82;2.83;;;;;;;19.71;92.98;96331.19;5044493;28;20343;-49
2023/03/19 10:00:39;;;;;;;8.63;2.92;;;;;;;19.46;87.48;96326.38;5046483;28;20540;-51
2023/03/19 10:03:18;;;;;;;3.08;1.85;;;;;;;19.06;94.12;96336.16;5048090;28;20099;-49
2023/03/19 10:05:52;;;;;;;4.35;2.80;;;;;;;19.31;97.96;96355.16;5047757;28;20068;-46
2023/03/19 10:08:33;;;;;;;6.53;2.80;;;;;;;19.51;86.11;96353.38;5047817;28;20065;-49
2023/03/19 10:11:14;;;;;;;5.60;2.38;;;;;;;19.00;94.42;96358.38;5044906;28;20081;-48
2023/03/19 10:13:52;;;;;;;4.30;2.92;;;;;;;19.35;87.90;96353.75;5043369;28;20068;-48
2023/03/19 10:16:22;;;;;;;8.77;3.75;;;;;;;19.62;86.23;96349.25;5047386;28;20081;-47
2023/03/19 10:18:52;;;;;;;3.80;1.90;;;;;;;19.47;88.19;96343.25;5048305;28;20076;-45
2023/03/19 10:21:26;;;;;;;4.10;2.28;;;;;;;20.03;83.09;96353.63;5047124;28;20081;-49
2023/03/19 10:23:57;;;;;;;4.45;2.88;;;;;;;20.58;75.74;96336.28;5048314;28;20463;-45
2023/03/19 10:26:30;;;;;;;4.57;2.80;;;;;;;20.33;75.13;96332.56;5049068;28;20076;-51
2023/03/19 10:29:04;;;;;;;5.70;2.70;;;;;;;20.46;69.49;96337.09;5051067;28;20075;-48
2023/03/19 10:31:42;;;;;;;4.78;2.15;;;;;;;20.41;75.98;96329.69;5047778;28;20085;-46
2023/03/19 10:34:30;;;;;;;4.70;2.30;;;;;;;20.80;70.64;96336.81;5053143;28;20068;-47
2023/03/19 10:37:00;;;;;;;4.32;1.80;;;;;;;20.05;80.52;96343.53;5048598;28;20096;-48
2023/03/19 10:39:30;;;;;;;3.88;2.33;;;;;;;19.87;79.92;96344.97;5042080;28;20091;-52
2023/03/19 10:42:10;;;;;;;3.22;1.90;;;;;;;20.05;90.54;96339.00;5045730;28;20107;-50
2023/03/19 10:44:43;;;;;;;2.65;1.70;;;;;;;19.94;90.00;96336.13;5048750;28;20076;-54
2023/03/19 10:47:13;;;;;;;5.75;2.65;;;;;;;20.22;86.79;96341.25;5046152;28;20060;-46
2023/03/19 10:49:42;;;;;;;3.90;2.10;;;;;;;20.08;81.91;96333.22;5044400;28;20060;-50
2023/03/19 10:52:18;;;;;;;5.13;3.13;;;;;;;20.57;87.00;96331.94;5042927;28;20069;-50
2023/03/19 10:54:47;;;;;;;3.60;2.60;;;;;;;20.51;87.45;96329.25;5044389;28;20079;-49
2023/03/19 10:57:25;;;;;;;4.03;2.67;;;;;;;20.36;79.28;96342.88;5046829;28;20064;-47
2023/03/19 10:59:54;;;;;;;4.80;2.17;;;;;;;20.46;77.96;96337.09;5046716;28;20474;-53
2023/03/19 11:02:26;;;;;;;3.55;2.10;;;;;;;19.95;84.90;96337.78;5042236;28;20087;-49
2023/03/19 11:05:07;;;;;;;2.78;2.03;;;;;;;19.96;83.43;96345.59;5047260;28;20080;-48
2023/03/19 11:07:36;;;;;;;8.60;2.92;;;;;;;20.56;87.71;96329.47;5050841;28;20080;-49
2023/03/19 11:10:06;;;;;;;3.08;1.77;;;;;;;20.25;76.58;96338.97;5047999;28;20073;-49
2023/03/19 11:12:36;;;;;;;5.90;2.85;;;;;;;20.04;84.19;96325.84;5046128;28;20084;-48
2023/03/19 11:15:16;;;;;;;7.38;3.20;;;;;;;20.69;83.55;96318.72;5047589;28;20068;-50
2023/03/19 11:17:47;;;;;;;5.20;2.63;;;;;;;20.39;74.45;96315.69;5050165;28;20072;-47
2023/03/19 11:20:26;;;;;;;;;;;;;;;21.09;63.96;96314.00;5046662;28;20335;-48
2023/03/19 11:23:01;;;;;;;6.43;3.42;;;;;;;20.43;73.79;96310.72;5045463;28;19987;-49
2023/03/19 11:25:31;;;;;;;4.90;3.00;;;;;;;20.82;72.62;96320.53;5046789;28;20081;-50
2023/03/19 11:28:02;;;;;;;;;;;;;;;20.70;63.86;96308.81;5046186;28;20072;-52
2023/03/19 11:30:38;;;;;;;6.85;2.80;;;;;;;20.94;66.25;96310.78;5046041;28;19952;-54
2023/03/19 11:33:15;;;;;;;4.43;1.70;;;;;;;20.93;59.92;96308.31;5047347;28;20080;-54